Time;durP1;ratioP1;P1;durP2;ratioP2;P2;SDS_P1;SDS_P2;PMS_P1;PMS_P2;Temp;Humidity;BMP_temperature;BMP_pressure;BME280_temperature;BME280_humidity;BME280_pressure;Samples;Min_cycle;Max_cycle;Signal;HPM_P1;HPM_P2
2021/10/26 00:01:52;;;;;;;7.67;6.77;;;6.80;99.90;;;;;;5024770;28;20187;-69
2021/10/26 00:04:19;;;;;;;7.10;6.40;;;6.80;99.90;;;;;;5007547;28;20195;-69
2021/10/26 00:06:44;;;;;;;6.90;6.10;;;6.80;99.90;;;;;;5006133;28;20240;-70
2021/10/26 00:09:10;;;;;;;7.40;6.70;;;6.90;99.90;;;;;;5029979;28;20525;-69
2021/10/26 00:11:36;;;;;;;8.80;7.30;;;6.80;99.90;;;;;;5016706;28;20178;-69
2021/10/26 00:14:01;;;;;;;8.10;7.10;;;6.60;99.90;;;;;;5021760;28;20226;-70
2021/10/26 00:16:27;;;;;;;9.60;7.33;;;6.90;99.90;;;;;;5024985;28;20675;-69
2021/10/26 00:18:53;;;;;;;9.17;7.63;;;6.80;99.90;;;;;;5018962;28;20760;-70
2021/10/26 00:21:18;;;;;;;7.60;6.63;;;6.80;99.90;;;;;;5005082;28;20211;-69
2021/10/26 00:23:44;;;;;;;6.97;6.13;;;6.70;99.90;;;;;;5017414;28;20617;-69
2021/10/26 00:26:10;;;;;;;8.63;6.40;;;6.70;99.90;;;;;;5005472;28;20202;-70
2021/10/26 00:28:35;;;;;;;7.10;6.20;;;6.90;99.90;;;;;;5002307;28;20553;-69
2021/10/26 00:31:02;;;;;;;10.73;6.87;;;6.90;99.90;;;;;;5016208;28;20767;-70
2021/10/26 00:33:29;;;;;;;7.30;6.10;;;6.70;99.90;;;;;;5033592;28;20608;-70
2021/10/26 00:35:55;;;;;;;9.55;5.93;;;7.00;99.90;;;;;;5009485;28;20199;-71
2021/10/26 00:38:21;;;;;;;8.20;6.37;;;7.00;99.90;;;;;;5008126;28;20195;-70
2021/10/26 00:40:47;;;;;;;6.23;5.60;;;7.10;99.90;;;;;;5014396;28;20377;-69
2021/10/26 00:43:13;;;;;;;8.70;6.57;;;7.00;99.90;;;;;;5027311;28;20201;-69
2021/10/26 00:45:39;;;;;;;7.18;6.53;;;6.90;99.90;;;;;;5019892;28;20443;-71
2021/10/26 00:48:05;;;;;;;7.27;6.57;;;7.10;99.90;;;;;;5022214;28;20581;-69
2021/10/26 00:50:31;;;;;;;7.20;6.60;;;7.20;99.90;;;;;;5023367;28;20191;-69
2021/10/26 00:52:56;;;;;;;10.07;7.07;;;7.40;99.90;;;;;;5021434;28;20257;-70
2021/10/26 00:55:22;;;;;;;9.67;7.83;;;7.40;99.90;;;;;;5036597;28;20248;-69
2021/10/26 00:57:49;;;;;;;7.33;6.53;;;7.40;99.90;;;;;;5024373;28;20256;-70
2021/10/26 01:00:16;;;;;;;8.05;7.15;;;7.60;99.90;;;;;;5028868;28;20175;-70
2021/10/26 01:02:43;;;;;;;8.45;6.03;;;7.80;99.90;;;;;;5014313;28;20222;-70
2021/10/26 01:05:08;;;;;;;8.95;8.05;;;7.70;99.90;;;;;;5024864;28;20231;-69
2021/10/26 01:07:35;;;;;;;7.37;6.60;;;7.60;99.90;;;;;;5016465;28;20202;-72
2021/10/26 01:10:00;;;;;;;7.88;7.07;;;7.90;99.90;;;;;;5039635;28;20202;-69
2021/10/26 01:12:29;;;;;;;8.13;7.43;;;8.10;99.90;;;;;;5029518;28;20218;-71
2021/10/26 01:14:55;;;;;;;8.25;7.18;;;7.80;99.90;;;;;;5011660;28;20278;-71
2021/10/26 01:17:21;;;;;;;7.75;7.05;;;8.20;99.90;;;;;;5006421;28;20192;-69
2021/10/26 01:19:48;;;;;;;7.03;6.43;;;8.30;99.90;;;;;;5025585;28;20186;-69
2021/10/26 01:22:16;;;;;;;6.70;6.10;;;8.40;99.90;;;;;;5023200;28;20209;-70
2021/10/26 01:24:41;;;;;;;7.03;6.32;;;8.30;99.90;;;;;;5039068;28;20192;-70
2021/10/26 01:27:07;;;;;;;8.53;6.80;;;8.30;99.90;;;;;;5009014;28;20184;-69
2021/10/26 01:29:35;;;;;;;7.30;6.60;;;8.40;99.90;;;;;;5032219;28;20195;-70
2021/10/26 01:32:03;;;;;;;6.82;6.20;;;8.60;99.90;;;;;;5017909;28;20270;-69
2021/10/26 01:34:29;;;;;;;6.97;6.30;;;8.40;99.90;;;;;;5023475;28;20222;-69
2021/10/26 01:37:01;;;;;;;6.88;6.18;;;8.40;99.90;;;;;;5021014;28;20188;-70
2021/10/26 01:39:27;;;;;;;7.35;6.63;;;8.60;99.90;;;;;;5026406;28;20211;-70
2021/10/26 01:41:53;;;;;;;7.60;6.80;;;8.70;99.90;;;;;;5017063;28;20226;-69
2021/10/26 01:44:19;;;;;;;7.37;6.60;;;8.80;99.90;;;;;;5024182;28;20195;-69
2021/10/26 01:46:44;;;;;;;7.67;6.97;;;8.60;99.90;;;;;;5031639;28;21013;-70
2021/10/26 01:49:10;;;;;;;8.03;7.23;;;8.70;99.90;;;;;;5031734;28;20724;-69
2021/10/26 01:51:35;;;;;;;7.40;6.80;;;8.70;99.90;;;;;;5041991;28;20290;-72
2021/10/26 01:54:01;;;;;;;7.27;6.57;;;8.80;99.90;;;;;;5021856;28;20226;-69
2021/10/26 01:56:26;;;;;;;8.13;7.20;;;8.90;99.90;;;;;;5047406;28;20190;-69
2021/10/26 01:58:52;;;;;;;8.33;7.50;;;8.80;99.90;;;;;;5021849;28;20191;-70
2021/10/26 02:01:18;;;;;;;10.10;7.83;;;8.90;99.90;;;;;;5005076;28;20191;-70
2021/10/26 02:03:43;;;;;;;10.30;8.53;;;8.90;99.90;;;;;;5011493;28;20184;-71
2021/10/26 02:06:09;;;;;;;10.97;8.43;;;9.00;99.90;;;;;;5038477;28;20518;-70
2021/10/26 02:08:34;;;;;;;10.20;8.07;;;9.00;99.90;;;;;;5026451;28;20187;-69
2021/10/26 02:11:00;;;;;;;10.47;9.50;;;8.90;99.90;;;;;;5028042;28;20184;-69
2021/10/26 02:13:25;;;;;;;10.60;9.60;;;8.90;99.90;;;;;;5032364;28;20234;-69
2021/10/26 02:15:51;;;;;;;10.43;8.60;;;9.10;99.90;;;;;;5026542;28;20188;-68
2021/10/26 02:18:16;;;;;;;9.83;8.93;;;9.00;99.90;;;;;;5024339;28;20630;-70
2021/10/26 02:20:42;;;;;;;9.93;9.00;;;9.10;99.90;;;;;;5010643;28;20180;-69
2021/10/26 02:23:07;;;;;;;10.10;8.20;;;9.00;99.90;;;;;;5023026;28;20352;-69
2021/10/26 02:25:33;;;;;;;9.50;8.20;;;9.10;99.90;;;;;;5013558;28;20655;-69
2021/10/26 02:27:59;;;;;;;10.57;8.80;;;9.00;99.90;;;;;;5014292;28;20651;-69
2021/10/26 02:30:24;;;;;;;9.23;8.30;;;9.10;99.90;;;;;;5018407;28;20457;-69
2021/10/26 02:32:50;;;;;;;9.60;8.10;;;9.00;99.90;;;;;;5025214;28;20740;-68
2021/10/26 02:35:16;;;;;;;10.30;8.67;;;8.90;99.90;;;;;;5015413;28;20184;-69
2021/10/26 02:37:41;;;;;;;9.37;8.50;;;8.90;99.90;;;;;;5014033;28;20214;-69
2021/10/26 02:40:08;;;;;;;8.30;7.33;;;9.00;99.90;;;;;;5030498;28;20959;-68
2021/10/26 02:42:33;;;;;;;12.13;8.60;;;9.00;99.90;;;;;;5047523;28;20196;-69
2021/10/26 02:44:59;;;;;;;8.70;7.80;;;9.10;99.90;;;;;;5035523;28;20534;-69
2021/10/26 02:47:24;;;;;;;8.57;7.73;;;9.00;99.90;;;;;;5022214;28;20549;-69
2021/10/26 02:49:50;;;;;;;8.60;7.70;;;8.80;99.90;;;;;;5015161;28;20219;-69
2021/10/26 02:52:15;;;;;;;9.43;8.37;;;8.90;99.90;;;;;;5038410;28;20190;-68
2021/10/26 02:54:41;;;;;;;8.00;6.60;;;9.00;99.90;;;;;;5021972;28;20230;-70
2021/10/26 02:57:06;;;;;;;8.50;7.60;;;9.00;99.90;;;;;;5022850;28;20189;-70
2021/10/26 02:59:32;;;;;;;9.63;8.63;;;9.00;99.90;;;;;;5020881;28;20184;-69
2021/10/26 03:01:58;;;;;;;8.23;7.53;;;8.80;99.90;;;;;;5022886;28;20233;-69
2021/10/26 03:04:23;;;;;;;9.30;8.40;;;8.80;99.90;;;;;;5013292;28;20192;-68
2021/10/26 03:06:49;;;;;;;13.50;8.93;;;9.00;99.90;;;;;;5009722;28;20488;-68
2021/10/26 03:09:14;;;;;;;9.67;8.63;;;9.10;99.90;;;;;;5021119;28;20759;-69
2021/10/26 03:11:40;;;;;;;9.00;8.20;;;9.00;99.90;;;;;;5037668;28;20297;-70
2021/10/26 03:14:06;;;;;;;9.43;8.53;;;9.00;99.90;;;;;;5046753;28;20628;-68
2021/10/26 03:16:32;;;;;;;10.80;9.70;;;9.10;99.90;;;;;;5023055;28;20241;-70
2021/10/26 03:18:57;;;;;;;11.27;9.23;;;9.10;99.90;;;;;;5014607;28;20506;-68
2021/10/26 03:21:23;;;;;;;9.70;8.80;;;8.90;99.90;;;;;;5032546;28;20494;-69
2021/10/26 03:23:48;;;;;;;8.57;7.67;;;9.20;99.90;;;;;;5044475;28;20187;-69
2021/10/26 03:26:14;;;;;;;8.40;7.60;;;9.00;99.90;;;;;;5012099;28;20902;-69
2021/10/26 03:28:40;;;;;;;7.83;7.03;;;9.00;99.90;;;;;;5009732;28;20656;-69
2021/10/26 03:31:05;;;;;;;9.67;6.73;;;9.20;99.90;;;;;;5038725;28;20183;-69
2021/10/26 03:33:31;;;;;;;8.00;7.17;;;9.10;99.90;;;;;;5020674;28;20212;-69
2021/10/26 03:35:59;;;;;;;8.30;7.50;;;8.70;99.90;;;;;;5022475;28;20621;-70
2021/10/26 03:38:25;;;;;;;8.93;8.02;;;8.90;99.90;;;;;;5016448;28;20198;-68
2021/10/26 03:40:50;;;;;;;8.60;7.70;;;8.90;99.90;;;;;;5032581;28;20175;-69
2021/10/26 03:43:16;;;;;;;8.77;7.80;;;8.90;99.90;;;;;;5047219;28;20187;-70
2021/10/26 03:45:42;;;;;;;7.83;7.03;;;8.70;99.90;;;;;;5033971;28;20199;-70
2021/10/26 03:48:09;;;;;;;7.83;7.03;;;8.60;99.90;;;;;;5020328;28;20241;-69
2021/10/26 03:50:34;;;;;;;7.80;7.00;;;8.70;99.90;;;;;;5024289;28;20695;-68
2021/10/26 03:53:00;;;;;;;8.53;7.63;;;8.60;99.90;;;;;;5023974;28;20223;-69
2021/10/26 03:55:25;;;;;;;7.30;6.60;;;8.70;99.90;;;;;;5007283;28;20204;-70
2021/10/26 03:57:51;;;;;;;8.27;7.47;;;8.70;99.90;;;;;;5015965;28;20191;-69
2021/10/26 04:00:16;;;;;;;8.30;7.50;;;8.60;99.90;;;;;;5018877;28;20194;-69
2021/10/26 04:02:42;;;;;;;7.50;6.80;;;8.40;99.90;;;;;;5030009;28;20175;-69
2021/10/26 04:05:24;;;;;;;8.55;7.53;;;8.60;99.90;;;;;;5022931;28;20735;-68
2021/10/26 04:07:56;;;;;;;8.07;7.38;;;8.40;99.90;;;;;;5033871;28;20392;-69
2021/10/26 04:13:06;;;;;;;8.07;7.28;;;8.10;99.90;;;;;;5021660;28;20641;-68
2021/10/26 04:15:32;;;;;;;11.40;7.90;;;8.30;99.90;;;;;;5024995;28;20213;-70
2021/10/26 04:17:57;;;;;;;9.37;8.37;;;7.90;99.90;;;;;;5028727;28;20180;-70
2021/10/26 04:20:23;;;;;;;9.27;7.67;;;8.00;99.90;;;;;;5020184;28;20217;-68
2021/10/26 04:22:48;;;;;;;9.67;7.80;;;8.00;99.90;;;;;;5029400;28;20194;-69
2021/10/26 04:25:14;;;;;;;8.47;7.67;;;7.80;99.90;;;;;;5019863;28;20190;-68
2021/10/26 04:27:39;;;;;;;9.47;8.10;;;7.60;99.90;;;;;;5027201;28;20187;-68
2021/10/26 04:30:06;;;;;;;9.90;7.93;;;7.70;99.90;;;;;;5019079;28;20648;-69
2021/10/26 04:32:33;;;;;;;8.60;7.70;;;7.60;99.90;;;;;;5024675;28;20191;-68
2021/10/26 04:34:58;;;;;;;7.45;6.75;;;7.70;99.90;;;;;;5023807;28;20276;-68
2021/10/26 04:37:24;;;;;;;8.50;7.80;;;7.90;99.90;;;;;;5032794;28;20635;-69
2021/10/26 04:39:49;;;;;;;10.47;9.30;;;7.60;99.90;;;;;;5029192;28;20737;-69
2021/10/26 04:42:15;;;;;;;8.47;7.60;;;7.70;99.90;;;;;;5027215;28;20206;-69
2021/10/26 04:44:40;;;;;;;9.57;8.57;;;7.70;99.90;;;;;;5025842;28;20274;-69
2021/10/26 04:47:06;;;;;;;9.67;8.70;;;7.50;99.90;;;;;;5031154;28;20181;-68
2021/10/26 04:49:32;;;;;;;8.57;7.73;;;7.70;99.90;;;;;;5040856;28;20217;-68
2021/10/26 04:51:58;;;;;;;9.45;8.38;;;7.70;99.90;;;;;;5026912;28;20183;-69
2021/10/26 04:54:23;;;;;;;8.97;7.90;;;7.60;99.90;;;;;;5036386;28;20313;-69
2021/10/26 04:56:49;;;;;;;8.30;7.27;;;7.60;99.90;;;;;;5027066;28;20198;-69
2021/10/26 04:59:14;;;;;;;8.97;7.90;;;7.70;99.90;;;;;;5034797;28;20742;-69
2021/10/26 05:01:40;;;;;;;9.30;8.30;;;8.10;99.90;;;;;;5019207;28;20217;-68
2021/10/26 05:04:06;;;;;;;9.67;8.63;;;7.90;99.90;;;;;;5032798;28;20187;-69
2021/10/26 05:06:32;;;;;;;10.30;8.77;;;7.70;99.90;;;;;;5045610;28;20235;-67
2021/10/26 05:08:57;;;;;;;10.97;8.60;;;7.70;99.90;;;;;;5030249;28;20617;-69
2021/10/26 05:11:23;;;;;;;8.97;8.07;;;7.80;99.90;;;;;;5016493;28;21067;-70
2021/10/26 05:13:49;;;;;;;10.88;8.13;;;7.80;99.90;;;;;;5023096;28;20310;-70
2021/10/26 05:16:15;;;;;;;10.03;8.57;;;7.80;99.90;;;;;;5044628;28;20274;-72
2021/10/26 05:18:44;;;;;;;10.17;8.03;;;7.80;99.90;;;;;;5033452;28;20179;-70
2021/10/26 05:21:15;;;;;;;9.77;8.77;;;7.70;99.90;;;;;;5014932;28;20188;-67
2021/10/26 05:23:45;;;;;;;9.00;8.20;;;7.50;99.90;;;;;;5011591;28;20681;-69
2021/10/26 05:26:11;;;;;;;9.57;7.80;;;7.50;99.90;;;;;;5032900;28;20599;-66
2021/10/26 05:28:37;;;;;;;13.63;9.53;;;7.60;99.90;;;;;;5049274;28;20183;-67
2021/10/26 05:31:02;;;;;;;11.53;9.90;;;7.60;99.90;;;;;;5032664;28;20187;-67
2021/10/26 05:33:28;;;;;;;10.70;8.83;;;7.80;99.90;;;;;;5011126;28;20691;-67
2021/10/26 05:35:54;;;;;;;11.43;10.23;;;7.80;99.90;;;;;;5029790;28;20183;-68
2021/10/26 05:38:19;;;;;;;12.17;10.13;;;7.70;99.90;;;;;;5048101;28;20198;-68
2021/10/26 05:40:45;;;;;;;11.17;10.00;;;7.60;99.90;;;;;;5019988;28;20211;-68
2021/10/26 05:43:11;;;;;;;11.50;10.30;;;7.50;99.90;;;;;;5005506;28;20310;-67
2021/10/26 05:45:36;;;;;;;10.37;9.27;;;7.50;99.90;;;;;;5022846;28;20186;-66
2021/10/26 05:48:02;;;;;;;9.50;8.30;;;7.60;99.90;;;;;;5041322;28;20188;-67
2021/10/26 05:50:27;;;;;;;10.00;8.60;;;7.60;99.90;;;;;;5024234;28;20190;-67
2021/10/26 05:52:53;;;;;;;11.10;9.20;;;7.60;99.90;;;;;;5019800;28;20248;-69
2021/10/26 05:55:18;;;;;;;10.50;8.70;;;7.80;99.90;;;;;;5028063;28;20211;-67
2021/10/26 05:57:44;;;;;;;9.70;8.43;;;7.90;99.90;;;;;;5037714;28;20549;-70
2021/10/26 06:00:10;;;;;;;10.03;9.00;;;7.80;99.90;;;;;;5028806;28;20229;-69
2021/10/26 06:02:35;;;;;;;9.37;8.10;;;7.70;99.90;;;;;;5018898;28;20196;-67
2021/10/26 06:05:01;;;;;;;9.53;8.53;;;7.70;99.90;;;;;;5028590;28;20487;-67
2021/10/26 06:07:26;;;;;;;10.67;9.50;;;7.70;99.90;;;;;;5026381;28;20186;-68
2021/10/26 06:09:52;;;;;;;9.67;8.67;;;8.00;99.90;;;;;;5022409;28;20207;-67
2021/10/26 06:12:27;;;;;;;11.27;9.23;;;7.90;99.90;;;;;;5009104;28;20568;-68
2021/10/26 06:14:53;;;;;;;11.70;10.50;;;7.80;99.90;;;;;;5010204;28;20242;-74
2021/10/26 06:17:18;;;;;;;10.80;9.07;;;7.80;99.90;;;;;;5017361;28;20191;-68
2021/10/26 06:19:44;;;;;;;9.47;7.93;;;7.90;99.90;;;;;;5032235;28;20570;-68
2021/10/26 06:22:09;;;;;;;8.53;7.53;;;7.80;99.90;;;;;;5038977;28;20190;-68
2021/10/26 06:24:35;;;;;;;8.73;8.03;;;8.00;99.90;;;;;;5024389;28;20270;-71
2021/10/26 06:27:00;;;;;;;8.93;7.53;;;7.80;99.90;;;;;;5024415;28;20195;-69
2021/10/26 06:29:26;;;;;;;8.73;7.93;;;8.00;99.90;;;;;;5008593;28;20265;-68
2021/10/26 06:31:51;;;;;;;8.40;7.60;;;7.90;99.90;;;;;;5007991;28;20183;-68
2021/10/26 06:34:17;;;;;;;8.33;7.53;;;7.90;99.90;;;;;;5019104;28;20223;-68
2021/10/26 06:36:42;;;;;;;9.53;8.60;;;8.30;99.90;;;;;;5021962;28;20195;-70
2021/10/26 06:39:08;;;;;;;13.33;11.30;;;8.20;99.90;;;;;;5024577;28;20187;-69
2021/10/26 06:41:33;;;;;;;14.43;12.23;;;8.20;99.90;;;;;;5027432;28;20227;-72
2021/10/26 06:43:59;;;;;;;13.73;11.63;;;8.20;99.90;;;;;;5017913;28;20188;-69
2021/10/26 06:46:24;;;;;;;13.17;11.77;;;8.10;99.90;;;;;;5014960;28;20260;-69
2021/10/26 06:48:50;;;;;;;10.53;9.37;;;8.60;99.90;;;;;;5022371;28;20273;-71
2021/10/26 06:51:15;;;;;;;9.47;8.57;;;8.50;99.90;;;;;;5013625;28;20627;-69
2021/10/26 06:53:41;;;;;;;9.53;8.60;;;8.20;99.90;;;;;;5024301;28;20227;-69
2021/10/26 06:56:13;;;;;;;8.27;7.57;;;8.40;99.90;;;;;;5025909;28;20186;-68
2021/10/26 06:58:38;;;;;;;9.77;8.07;;;8.60;99.90;;;;;;5024632;28;20597;-69
2021/10/26 07:01:07;;;;;;;8.37;7.33;;;8.30;99.90;;;;;;5023135;28;20271;-70
2021/10/26 07:03:35;;;;;;;8.25;7.43;;;8.30;99.90;;;;;;5021681;28;20195;-69
2021/10/26 07:06:01;;;;;;;8.65;7.55;;;8.70;99.90;;;;;;5020893;28;20725;-69
2021/10/26 07:08:27;;;;;;;10.55;8.50;;;8.50;99.90;;;;;;5024070;28;20194;-69
2021/10/26 07:10:56;;;;;;;9.57;8.68;;;8.80;99.90;;;;;;5015783;28;20195;-70
2021/10/26 07:13:22;;;;;;;9.60;8.60;;;8.80;99.90;;;;;;5007808;28;20231;-70
2021/10/26 07:15:48;;;;;;;10.23;9.23;;;8.80;99.90;;;;;;5018490;28;20218;-70
2021/10/26 07:18:14;;;;;;;10.93;9.95;;;9.20;99.90;;;;;;5022638;28;20183;-71
2021/10/26 07:20:39;;;;;;;10.17;9.17;;;9.20;99.90;;;;;;5022713;28;20677;-70
2021/10/26 07:23:05;;;;;;;9.50;8.00;;;9.40;99.90;;;;;;5022349;28;20849;-72
2021/10/26 07:25:31;;;;;;;8.47;7.37;;;9.50;99.90;;;;;;5016063;28;20502;-71
2021/10/26 07:27:58;;;;;;;9.20;8.30;;;10.00;99.90;;;;;;5005899;28;20270;-73
2021/10/26 07:30:27;;;;;;;10.70;9.80;;;9.80;99.90;;;;;;5004616;28;20195;-70
2021/10/26 07:32:54;;;;;;;9.30;8.40;;;10.10;99.90;;;;;;5004927;28;20214;-71
2021/10/26 07:35:20;;;;;;;9.48;8.57;;;10.10;99.90;;;;;;5003574;28;20184;-70
2021/10/26 07:37:47;;;;;;;11.07;9.53;;;10.30;99.90;;;;;;5008070;28;20546;-70
2021/10/26 07:40:14;;;;;;;10.30;9.30;;;10.30;99.90;;;;;;5011932;28;20867;-71
2021/10/26 07:42:40;;;;;;;10.13;9.13;;;10.60;99.90;;;;;;5023996;28;20178;-70
2021/10/26 07:45:07;;;;;;;9.07;8.03;;;10.90;99.90;;;;;;5023438;28;20189;-70
2021/10/26 07:47:34;;;;;;;11.77;9.40;;;10.90;99.90;;;;;;5027104;28;20323;-72
2021/10/26 07:50:00;;;;;;;10.07;9.13;;;11.50;99.90;;;;;;5023932;28;20191;-71
2021/10/26 07:52:26;;;;;;;10.43;8.97;;;11.70;99.90;;;;;;5023351;28;20195;-70
2021/10/26 07:54:55;;;;;;;17.02;11.70;;;12.00;99.90;;;;;;5024716;28;20701;-71
2021/10/26 07:57:22;;;;;;;13.55;11.50;;;12.20;99.90;;;;;;5025086;28;20567;-69
2021/10/26 07:59:49;;;;;;;10.97;9.97;;;12.30;99.90;;;;;;5027843;28;20281;-69
2021/10/26 08:02:16;;;;;;;9.90;9.00;;;12.40;99.90;;;;;;5022411;28;20526;-71
2021/10/26 08:04:45;;;;;;;10.03;9.10;;;13.00;99.90;;;;;;5026121;28;20441;-69
2021/10/26 08:07:11;;;;;;;10.03;9.03;;;12.80;99.90;;;;;;5030738;28;20955;-70
2021/10/26 08:09:37;;;;;;;10.03;9.10;;;12.80;99.90;;;;;;5029051;28;20944;-71
2021/10/26 08:12:03;;;;;;;11.30;9.73;;;12.80;99.90;;;;;;5007679;28;20434;-70
2021/10/26 08:14:29;;;;;;;10.20;9.27;;;13.10;99.90;;;;;;5007221;28;20362;-71
2021/10/26 08:16:58;;;;;;;10.33;9.33;;;13.20;99.90;;;;;;5008804;28;20474;-72
2021/10/26 08:19:24;;;;;;;9.43;8.43;;;13.30;99.90;;;;;;5011630;28;20440;-71
2021/10/26 08:21:50;;;;;;;11.67;9.87;;;13.80;99.90;;;;;;5011759;28;20875;-70
2021/10/26 08:24:20;;;;;;;10.43;9.33;;;15.10;99.90;;;;;;5009156;28;20267;-71
2021/10/26 08:26:55;;;;;;;9.80;8.80;;;15.60;99.90;;;;;;5007821;28;20226;-71
2021/10/26 08:29:35;;;;;;;9.53;8.30;;;16.30;99.90;;;;;;5009371;28;20431;-72
2021/10/26 08:37:11;;;;;;;9.37;8.40;;;17.30;99.90;;;;;;5025388;28;20445;-72
2021/10/26 08:39:38;;;;;;;7.97;7.33;;;17.40;99.90;;;;;;5024885;28;20440;-72
2021/10/26 08:42:05;;;;;;;8.77;7.87;;;17.90;99.90;;;;;;5021227;28;20447;-70
2021/10/26 08:44:31;;;;;;;8.57;7.77;;;17.90;99.90;;;;;;5011680;28;20452;-70
2021/10/26 08:46:58;;;;;;;8.07;7.27;;;18.00;99.90;;;;;;5005779;28;20493;-71
2021/10/26 08:49:24;;;;;;;7.30;6.63;;;18.60;99.90;;;;;;5005659;28;20493;-70
2021/10/26 08:51:52;;;;;;;9.27;8.43;;;18.60;99.30;;;;;;5006897;28;20948;-70
2021/10/26 08:54:18;;;;;;;7.30;6.70;;;19.10;98.80;;;;;;5006747;28;20483;-71
2021/10/26 08:56:45;;;;;;;7.03;6.43;;;19.40;94.70;;;;;;5007241;28;20424;-69
2021/10/26 08:59:15;;;;;;;7.70;6.97;;;19.50;90.50;;;;;;5005305;28;20786;-70
2021/10/26 09:01:43;;;;;;;6.70;6.20;;;19.50;85.60;;;;;;5005454;28;20517;-71
2021/10/26 09:04:10;;;;;;;5.90;5.40;;;19.30;81.50;;;;;;5020890;28;20827;-72
2021/10/26 09:06:45;;;;;;;7.03;6.33;;;19.40;83.70;;;;;;5024820;28;20479;-70
2021/10/26 09:09:24;;;;;;;6.57;6.07;;;20.50;86.20;;;;;;5008331;28;20964;-71
2021/10/26 09:17:47;;;;;;;5.97;5.47;;;22.40;66.50;;;;;;5008313;28;20483;-71
2021/10/26 09:20:15;;;;;;;5.70;5.23;;;22.80;63.20;;;;;;5005625;28;20850;-71
2021/10/26 09:22:50;;;;;;;5.50;5.00;;;23.30;62.60;;;;;;5004756;28;20423;-70
2021/10/26 09:25:16;;;;;;;6.97;5.23;;;24.10;57.00;;;;;;5015914;28;20443;-71
2021/10/26 09:27:43;;;;;;;4.60;4.20;;;24.80;55.80;;;;;;5028845;28;20443;-70
2021/10/26 09:30:12;;;;;;;4.30;3.90;;;26.20;54.70;;;;;;5028073;28;20525;-69
2021/10/26 09:32:41;;;;;;;4.90;4.03;;;27.90;49.10;;;;;;5024487;28;20481;-70
2021/10/26 09:35:27;;;;;;;5.23;4.73;;;29.60;45.60;;;;;;5026159;28;20487;-70
2021/10/26 09:37:57;;;;;;;4.47;4.07;;;29.40;38.90;;;;;;5027347;28;20807;-71
2021/10/26 09:40:36;;;;;;;5.30;4.73;;;28.30;39.30;;;;;;5025764;28;20440;-71
2021/10/26 09:43:06;;;;;;;5.07;4.30;;;26.90;40.50;;;;;;5004717;28;20462;-71
2021/10/26 09:45:32;;;;;;;4.07;3.70;;;25.40;42.70;;;;;;5009104;28;20709;-70
2021/10/26 09:48:20;;;;;;;5.13;4.73;;;24.70;44.90;;;;;;5008015;28;20801;-70
2021/10/26 09:50:46;;;;;;;4.40;4.07;;;23.70;46.80;;;;;;5007394;28;20897;-70
2021/10/26 09:53:14;;;;;;;5.37;4.93;;;22.60;48.60;;;;;;5004690;28;20540;-69
2021/10/26 09:55:47;;;;;;;4.90;4.40;;;22.10;51.40;;;;;;5024116;28;20442;-69
2021/10/26 09:58:14;;;;;;;4.23;3.93;;;21.60;52.40;;;;;;5022161;28;20860;-69
2021/10/26 10:00:42;;;;;;;5.60;4.13;;;21.00;53.60;;;;;;5024672;28;20476;-70
2021/10/26 10:03:09;;;;;;;3.90;3.40;;;20.90;54.30;;;;;;5024177;28;20520;-69
2021/10/26 10:05:52;;;;;;;4.53;3.30;;;20.80;54.80;;;;;;5023943;28;20959;-70
2021/10/26 10:08:29;;;;;;;5.43;4.30;;;20.60;55.20;;;;;;5022289;28;20450;-70
2021/10/26 10:11:17;;;;;;;7.50;3.53;;;20.10;56.10;;;;;;5024240;28;20539;-72
2021/10/26 10:13:54;;;;;;;3.80;3.10;;;20.50;56.20;;;;;;5023326;28;20904;-71
2021/10/26 10:16:21;;;;;;;3.50;3.00;;;20.30;55.20;;;;;;5006098;28;20445;-70
2021/10/26 10:18:48;;;;;;;2.40;2.27;;;20.70;55.50;;;;;;5008463;28;20446;-70
2021/10/26 10:21:17;;;;;;;3.63;3.07;;;20.90;56.00;;;;;;5006981;28;20989;-72
2021/10/26 10:23:47;;;;;;;3.37;3.10;;;21.40;55.10;;;;;;5005828;28;20522;-70
2021/10/26 10:26:17;;;;;;;4.33;3.60;;;22.50;53.40;;;;;;5004071;28;20511;-70
2021/10/26 10:28:52;;;;;;;4.20;3.63;;;23.70;52.50;;;;;;5004020;28;20930;-70
2021/10/26 10:31:20;;;;;;;4.63;3.00;;;25.90;48.20;;;;;;5003836;28;20513;-70
2021/10/26 10:33:48;;;;;;;3.40;3.20;;;27.00;44.00;;;;;;5008291;28;20577;-70
2021/10/26 10:36:16;;;;;;;3.50;3.00;;;27.90;42.00;;;;;;5005969;28;20804;-72
2021/10/26 10:38:43;;;;;;;3.30;2.90;;;27.80;40.20;;;;;;5006423;28;20430;-70
2021/10/26 10:41:30;;;;;;;3.37;3.17;;;27.00;39.70;;;;;;5010741;28;20608;-70
2021/10/26 10:44:03;;;;;;;3.20;2.90;;;25.90;41.20;;;;;;5024553;28;20428;-73
2021/10/26 10:46:45;;;;;;;3.47;3.00;;;25.40;42.80;;;;;;5007020;28;20806;-72
2021/10/26 10:49:22;;;;;;;3.87;2.80;;;24.30;44.00;;;;;;5004809;28;20444;-70
2021/10/26 10:52:10;;;;;;;3.17;2.97;;;23.30;46.10;;;;;;5008620;28;20443;-70
2021/10/26 10:54:39;;;;;;;3.70;3.40;;;22.90;48.60;;;;;;5007795;28;20502;-75
2021/10/26 10:57:33;;;;;;;3.40;3.10;;;22.90;48.40;;;;;;5003390;28;20446;-71
2021/10/26 11:00:05;;;;;;;3.60;3.30;;;23.00;50.10;;;;;;5003179;28;20505;-70
2021/10/26 11:02:40;;;;;;;3.80;2.77;;;23.40;49.00;;;;;;5004571;28;20444;-71
2021/10/26 11:05:06;;;;;;;2.80;2.60;;;23.20;47.60;;;;;;5003773;28;20473;-70
2021/10/26 11:07:44;;;;;;;3.13;2.70;;;22.70;48.30;;;;;;5010304;28;20448;-73
2021/10/26 11:10:14;;;;;;;3.53;3.13;;;22.80;48.00;;;;;;5025934;28;20186;-71
2021/10/26 11:12:42;;;;;;;3.70;3.40;;;22.60;48.30;;;;;;5025180;28;20447;-71
2021/10/26 11:15:13;;;;;;;3.30;3.10;;;22.60;48.80;;;;;;5025244;28;21017;-72
2021/10/26 11:17:42;;;;;;;3.17;2.77;;;22.50;48.70;;;;;;5022857;28;20784;-71
2021/10/26 11:20:28;;;;;;;4.50;3.07;;;22.30;49.40;;;;;;5009612;28;20457;-71
2021/10/26 11:23:04;;;;;;;3.93;2.80;;;21.90;49.70;;;;;;5004445;28;20476;-70
2021/10/26 11:25:34;;;;;;;3.03;2.83;;;22.10;50.30;;;;;;5007244;28;20524;-70
2021/10/26 11:28:24;;;;;;;2.60;2.40;;;22.20;50.80;;;;;;5005772;28;20444;-71
2021/10/26 11:30:52;;;;;;;3.37;3.07;;;22.20;51.00;;;;;;5027298;28;20454;-71
2021/10/26 11:33:18;;;;;;;3.10;2.57;;;22.00;50.00;;;;;;5026675;28;20540;-73
2021/10/26 11:35:50;;;;;;;2.80;2.10;;;21.80;49.80;;;;;;5043045;28;20441;-70
2021/10/26 11:38:23;;;;;;;2.83;2.20;;;21.80;50.20;;;;;;5024385;28;20195;-73
2021/10/26 11:40:55;;;;;;;2.70;2.50;;;22.10;50.40;;;;;;5022880;28;20449;-70
2021/10/26 11:43:21;;;;;;;3.10;2.90;;;21.90;49.60;;;;;;5025009;28;20964;-68
2021/10/26 11:46:02;;;;;;;2.77;2.20;;;21.60;50.10;;;;;;5031206;28;20485;-68
2021/10/26 11:48:54;;;;;;;3.07;2.87;;;21.00;50.40;;;;;;5008497;28;20961;-68
2021/10/26 11:51:27;;;;;;;2.43;2.23;;;20.40;51.50;;;;;;5008116;28;20443;-69
2021/10/26 11:54:00;;;;;;;2.63;2.43;;;20.30;52.80;;;;;;5006640;28;20527;-72
2021/10/26 11:56:26;;;;;;;2.40;2.20;;;19.70;53.90;;;;;;5028607;28;20442;-71
2021/10/26 11:59:03;;;;;;;2.57;2.37;;;19.10;54.70;;;;;;5021979;28;21032;-69
2021/10/26 12:01:46;;;;;;;2.20;2.10;;;18.90;55.50;;;;;;5016817;28;20181;-72
2021/10/26 12:04:32;;;;;;;4.73;2.50;;;18.60;55.90;;;;;;5023889;28;20435;-69
2021/10/26 12:07:00;;;;;;;2.60;2.13;;;18.60;56.90;;;;;;5041715;28;20473;-70
2021/10/26 12:09:29;;;;;;;1.93;1.83;;;18.60;57.10;;;;;;5027230;28;20869;-69
2021/10/26 12:11:59;;;;;;;2.20;2.00;;;18.40;57.50;;;;;;5024774;28;20439;-68
2021/10/26 12:14:29;;;;;;;2.40;2.20;;;18.70;57.70;;;;;;5025727;28;20532;-69
2021/10/26 12:17:36;;;;;;;2.10;2.00;;;18.20;57.40;;;;;;5027588;28;20457;-70
2021/10/26 12:20:15;;;;;;;1.97;1.87;;;18.50;58.40;;;;;;4991181;28;20969;-70
2021/10/26 12:22:43;;;;;;;2.97;2.30;;;18.30;58.60;;;;;;5029447;28;20445;-70
2021/10/26 12:25:28;;;;;;;2.57;2.17;;;18.40;58.70;;;;;;5024679;28;20500;-69
2021/10/26 12:27:59;;;;;;;1.73;1.63;;;18.30;58.90;;;;;;5027216;28;20498;-71
2021/10/26 12:30:31;;;;;;;3.13;1.50;;;19.00;59.70;;;;;;5036740;28;20806;-69
2021/10/26 12:32:58;;;;;;;2.50;1.80;;;19.10;58.20;;;;;;5008631;28;20476;-69
2021/10/26 12:35:26;;;;;;;1.83;1.73;;;19.80;57.80;;;;;;5018122;28;20484;-68
2021/10/26 12:38:21;;;;;;;2.23;2.10;;;20.60;57.00;;;;;;5029803;28;20934;-69
2021/10/26 12:40:49;;;;;;;2.20;2.10;;;21.20;54.80;;;;;;4996751;28;20457;-70
2021/10/26 12:43:23;;;;;;;2.60;2.10;;;22.80;53.50;;;;;;5022161;28;20436;-71
2021/10/26 12:45:51;;;;;;;2.50;2.30;;;23.70;51.80;;;;;;5005728;28;20452;-70
2021/10/26 12:48:17;;;;;;;3.30;2.20;;;24.80;50.10;;;;;;5012730;28;20933;-69
2021/10/26 12:50:58;;;;;;;3.00;2.40;;;26.50;47.10;;;;;;5029952;28;20440;-69
2021/10/26 12:53:43;;;;;;;2.00;1.90;;;27.50;43.10;;;;;;5016666;28;20554;-70
2021/10/26 12:56:25;;;;;;;2.23;2.03;;;27.10;41.10;;;;;;5025120;28;20444;-70
2021/10/26 12:59:06;;;;;;;3.67;2.80;;;26.10;42.20;;;;;;5032533;28;20444;-72
2021/10/26 13:01:34;;;;;;;2.57;2.37;;;24.80;44.00;;;;;;5049730;28;20870;-68
2021/10/26 13:04:18;;;;;;;2.10;1.90;;;24.40;45.50;;;;;;5039402;28;20442;-70
2021/10/26 13:06:55;;;;;;;1.60;1.50;;;23.60;46.10;;;;;;5026548;28;20474;-68
2021/10/26 13:09:22;;;;;;;2.57;1.83;;;22.90;47.30;;;;;;5023926;28;20437;-69
2021/10/26 13:11:47;;;;;;;2.87;2.07;;;22.70;48.60;;;;;;5026826;28;20439;-69